Time;durP1;ratioP1;P1;durP2;ratioP2;P2;SDS_P1;SDS_P2;PMS_P1;PMS_P2;Temp;Humidity;BMP_temperature;BMP_pressure;BME280_temperature;BME280_humidity;BME280_pressure;Samples;Min_cycle;Max_cycle;Signal;HPM_P1;HPM_P2
2023/01/28 00:01:50;;;;;;;8.53;6.60;;;5.80;67.70;5.40;96703.00;;;;4970639;28;20247;-89
2023/01/28 00:04:20;;;;;;;8.57;6.83;;;5.80;67.70;5.40;96703.00;;;;4957537;28;20208;-90
2023/01/28 00:06:53;;;;;;;9.20;6.60;;;5.80;67.50;5.40;96694.00;;;;4951999;28;20591;-89
2023/01/28 00:09:23;;;;;;;8.30;6.60;;;5.80;67.40;5.40;96697.00;;;;4951876;28;20280;-89
2023/01/28 00:11:57;;;;;;;10.40;7.10;;;5.70;67.30;5.30;96704.00;;;;4951442;28;20240;-88
2023/01/28 00:14:30;;;;;;;9.10;6.47;;;5.70;67.30;5.30;96701.00;;;;4953246;29;20603;-89
2023/01/28 00:16:57;;;;;;;11.73;7.20;;;5.70;67.40;5.30;96704.00;;;;4952387;29;20196;-90
2023/01/28 00:19:29;;;;;;;9.97;6.70;;;5.70;67.40;5.30;96706.00;;;;4955460;28;20204;-90
2023/01/28 00:21:56;;;;;;;10.87;6.97;;;5.70;67.60;5.30;96706.00;;;;4944661;28;20240;-90
2023/01/28 00:24:26;;;;;;;8.57;6.17;;;5.70;67.60;5.30;96701.00;;;;4941185;28;20856;-90
2023/01/28 00:27:05;;;;;;;10.23;6.77;;;5.60;67.60;5.20;96698.00;;;;4945344;28;20243;-90
2023/01/28 00:29:32;;;;;;;9.67;7.27;;;5.60;67.70;5.20;96695.00;;;;4941524;28;20680;-90
2023/01/28 00:32:03;;;;;;;13.37;6.77;;;5.60;67.70;5.20;96701.00;;;;4944827;28;20220;-90
2023/01/28 00:34:39;;;;;;;9.07;6.80;;;5.60;67.60;5.20;96696.00;;;;4951864;28;20707;-90
2023/01/28 00:37:10;;;;;;;11.90;7.77;;;5.60;68.60;5.10;96696.00;;;;4944930;29;20547;-89
2023/01/28 00:39:37;;;;;;;12.27;6.63;;;5.60;68.00;5.20;96699.00;;;;4951144;28;20919;-89
2023/01/28 00:42:06;;;;;;;9.50;6.87;;;5.50;68.00;5.20;96697.00;;;;4954047;28;20645;-90
2023/01/28 00:44:35;;;;;;;12.63;7.37;;;5.50;68.00;5.20;96690.00;;;;4949486;29;20213;-88
2023/01/28 00:47:03;;;;;;;10.33;7.13;;;5.50;68.00;5.20;96698.00;;;;4947729;28;20311;-89
2023/01/28 00:49:33;;;;;;;10.30;7.40;;;5.50;68.10;5.20;96691.00;;;;4965713;28;20205;-89
2023/01/28 00:52:01;;;;;;;12.10;7.73;;;5.50;68.10;5.20;96694.00;;;;4986165;28;20240;-90
2023/01/28 00:54:28;;;;;;;9.73;6.87;;;5.50;68.10;5.20;96699.00;;;;4992926;28;20204;-90
2023/01/28 00:56:55;;;;;;;10.33;7.30;;;5.50;68.20;5.20;96696.00;;;;4953057;29;20826;-89
2023/01/28 00:59:24;;;;;;;9.53;7.03;;;5.50;68.10;5.10;96699.00;;;;4964042;28;20204;-90
2023/01/28 01:01:51;;;;;;;12.90;7.60;;;5.50;68.10;5.10;96697.00;;;;4955938;28;20224;-89
2023/01/28 01:04:25;;;;;;;13.93;7.17;;;5.40;68.20;5.10;96700.00;;;;4959205;29;20560;-90
2023/01/28 01:06:53;;;;;;;13.23;6.93;;;5.50;68.40;5.10;96704.00;;;;4955003;28;20285;-90
2023/01/28 01:09:21;;;;;;;14.93;7.40;;;5.50;68.50;5.10;96699.00;;;;4982675;28;20258;-89
2023/01/28 01:11:49;;;;;;;9.60;6.93;;;5.50;68.70;5.10;96701.00;;;;4968343;28;20307;-88
2023/01/28 01:14:16;;;;;;;10.17;7.17;;;5.50;68.70;5.10;96707.00;;;;4947175;29;20243;-88
2023/01/28 01:16:47;;;;;;;10.30;6.63;;;5.50;68.50;5.10;96701.00;;;;4945325;28;20247;-90
2023/01/28 01:19:14;;;;;;;12.73;6.80;;;5.50;68.50;5.10;96701.00;;;;4953587;28;20649;-89
2023/01/28 01:21:41;;;;;;;10.60;7.47;;;5.50;68.60;5.10;96703.00;;;;4936138;29;20654;-89
2023/01/28 01:24:09;;;;;;;13.03;7.47;;;5.50;68.60;5.10;96706.00;;;;4943379;28;20200;-89
2023/01/28 01:26:36;;;;;;;10.87;7.00;;;5.50;68.50;5.10;96703.00;;;;4943344;28;20220;-89
2023/01/28 01:29:03;;;;;;;11.33;7.67;;;5.40;68.50;5.00;96714.00;;;;4948079;29;20258;-89
2023/01/28 01:31:30;;;;;;;10.90;7.10;;;5.40;68.50;5.00;96710.00;;;;4950976;28;20248;-88
2023/01/28 01:33:59;;;;;;;11.73;7.03;;;5.40;68.30;5.00;96712.00;;;;4960815;28;20200;-89
2023/01/28 01:36:26;;;;;;;8.53;6.47;;;5.40;68.30;5.00;96711.00;;;;4958035;28;20200;-90
2023/01/28 01:38:55;;;;;;;15.97;7.97;;;5.40;68.20;5.00;96716.00;;;;4954904;28;20588;-90
2023/01/28 01:41:32;;;;;;;12.10;6.87;;;5.40;68.40;4.90;96716.00;;;;4956623;29;20216;-89
2023/01/28 01:44:03;;;;;;;8.73;6.83;;;5.40;68.50;4.90;96711.00;;;;4956058;29;20204;-90
2023/01/28 01:46:39;;;;;;;10.97;6.67;;;5.40;68.40;4.90;96713.00;;;;4955971;28;20560;-89
2023/01/28 01:49:21;;;;;;;11.60;7.40;;;5.30;68.40;4.90;96712.00;;;;4957872;28;20211;-89
2023/01/28 01:51:54;;;;;;;12.00;7.07;;;5.30;68.50;4.90;96717.00;;;;4955188;28;20269;-89
2023/01/28 01:54:28;;;;;;;11.13;6.73;;;5.30;68.50;4.90;96717.00;;;;4955907;29;20212;-89
2023/01/28 01:56:56;;;;;;;9.50;6.47;;;5.30;68.60;4.90;96715.00;;;;4948854;29;20195;-90
2023/01/28 01:59:29;;;;;;;10.23;6.77;;;5.30;68.70;4.90;96717.00;;;;4955670;29;20204;-90
2023/01/28 02:01:59;;;;;;;9.83;6.03;;;5.30;68.80;4.90;96714.00;;;;4942163;29;20645;-89
2023/01/28 02:04:33;;;;;;;13.77;7.80;;;5.30;68.80;4.90;96721.00;;;;4947703;29;20208;-90
2023/01/28 02:07:07;;;;;;;11.90;7.20;;;5.30;68.80;4.90;96725.00;;;;4955522;28;20658;-91
2023/01/28 02:09:37;;;;;;;9.20;5.97;;;5.30;68.80;4.90;96731.00;;;;4953616;28;20215;-92
2023/01/28 02:12:11;;;;;;;9.90;6.27;;;5.30;68.90;4.90;96733.00;;;;4955608;28;20292;-91
2023/01/28 02:14:44;;;;;;;18.60;7.10;;;5.30;68.90;4.90;96734.00;;;;4954330;29;20200;-91
2023/01/28 02:17:12;;;;;;;12.80;7.37;;;5.30;69.10;5.00;96732.00;;;;4953592;28;20755;-91
2023/01/28 02:19:48;;;;;;;17.50;7.20;;;5.30;69.10;5.00;96732.00;;;;4953673;28;20230;-92
2023/01/28 02:23:18;;;;;;;15.00;7.10;;;5.30;69.20;5.00;96736.00;;;;4952899;28;20248;-89
2023/01/28 02:26:26;;;;;;;12.63;7.00;;;5.30;69.30;5.00;96733.00;;;;4935012;29;20243;-91
2023/01/28 02:29:04;;;;;;;12.03;6.13;;;5.30;69.20;5.00;96743.00;;;;4946974;29;20222;-90
2023/01/28 02:31:39;;;;;;;9.47;6.83;;;5.40;69.30;5.00;96741.00;;;;4954834;28;20699;-91
2023/01/28 02:34:22;;;;;;;9.17;6.57;;;5.30;69.20;5.00;96739.00;;;;4949254;29;20227;-91
2023/01/28 02:36:56;;;;;;;8.50;6.20;;;5.30;69.10;5.00;96746.00;;;;4955363;29;20181;-89
2023/01/28 02:39:27;;;;;;;8.93;6.40;;;5.30;69.00;5.00;96745.00;;;;4948432;28;20213;-88
2023/01/28 02:42:04;;;;;;;11.60;6.33;;;5.30;68.90;5.00;96745.00;;;;4943728;28;20224;-88
2023/01/28 02:44:35;;;;;;;9.07;6.87;;;5.30;69.00;5.00;96752.00;;;;4942484;29;20200;-90
2023/01/28 02:49:53;;;;;;;11.07;5.90;;;5.40;69.00;5.00;96759.00;;;;4953564;29;20655;-88
2023/01/28 02:55:38;;;;;;;9.27;5.93;;;5.40;69.10;5.00;96755.00;;;;4952515;28;20281;-89
2023/01/28 02:58:19;;;;;;;11.33;6.77;;;5.40;69.00;5.00;96748.00;;;;4948524;28;20203;-86
2023/01/28 03:01:04;;;;;;;8.27;6.43;;;5.40;69.10;5.00;96752.00;;;;4938671;28;20258;-89
2023/01/28 03:03:44;;;;;;;8.67;6.70;;;5.30;69.00;4.90;96745.00;;;;4952874;29;20214;-89
2023/01/28 03:06:18;;;;;;;8.87;6.63;;;5.30;68.90;4.90;96750.00;;;;4954020;28;20232;-90
2023/01/28 03:36:59;;;;;;;9.23;6.73;;;5.10;68.80;4.60;96751.00;;;;4950985;29;20210;-90
2023/01/28 03:39:31;;;;;;;10.60;6.90;;;5.10;68.80;4.60;96754.00;;;;4952674;28;20200;-89
2023/01/28 03:42:04;;;;;;;8.20;6.43;;;5.00;68.80;4.60;96752.00;;;;4952797;28;20219;-87
2023/01/28 03:44:51;;;;;;;11.03;6.37;;;5.00;68.90;4.60;96762.00;;;;4951634;28;20196;-88
2023/01/28 03:47:20;;;;;;;10.77;6.80;;;5.00;68.90;4.60;96764.00;;;;4952628;28;20704;-88
2023/01/28 03:49:53;;;;;;;8.30;5.87;;;5.00;69.10;4.60;96754.00;;;;4952752;28;20415;-90
2023/01/28 03:52:24;;;;;;;8.80;5.87;;;5.00;69.20;4.60;96759.00;;;;4951615;28;20267;-91
2023/01/28 03:54:51;;;;;;;13.10;6.43;;;5.00;69.30;4.60;96766.00;;;;4950861;29;20246;-90
2023/01/28 03:57:22;;;;;;;10.43;6.73;;;5.00;69.20;4.60;96764.00;;;;4941446;28;20254;-89
2023/01/28 03:59:49;;;;;;;10.30;7.17;;;5.00;69.40;4.70;96762.00;;;;4945914;28;20204;-90
2023/01/28 04:02:20;;;;;;;13.03;6.43;;;5.00;69.50;4.70;96768.00;;;;4980589;28;20308;-89
2023/01/28 04:04:49;;;;;;;15.63;6.87;;;5.00;69.70;4.70;96770.00;;;;4974418;28;20234;-89
2023/01/28 04:07:17;;;;;;;12.13;6.53;;;5.10;69.90;4.80;96776.00;;;;4953544;28;20220;-89
2023/01/28 04:09:47;;;;;;;14.43;6.57;;;5.10;70.00;4.80;96775.00;;;;4953837;28;20204;-89
2023/01/28 04:12:19;;;;;;;9.97;6.57;;;5.10;69.90;4.80;96774.00;;;;4954199;28;20224;-89
2023/01/28 04:15:00;;;;;;;7.13;5.93;;;5.10;69.90;4.80;96775.00;;;;4952552;28;20216;-89
2023/01/28 04:17:36;;;;;;;11.60;6.53;;;5.20;69.70;4.80;96778.00;;;;4953685;28;20210;-90
2023/01/28 04:20:19;;;;;;;10.00;6.53;;;5.20;69.60;4.90;96781.00;;;;4953722;28;20203;-90
2023/01/28 04:22:46;;;;;;;7.90;5.93;;;5.20;69.60;4.90;96785.00;;;;4951291;28;20224;-89
2023/01/28 04:25:13;;;;;;;12.23;6.43;;;5.20;69.50;4.90;96779.00;;;;4938470;29;20205;-90
2023/01/28 04:27:44;;;;;;;9.33;5.87;;;5.20;69.40;4.90;96788.00;;;;4950237;29;20263;-90
2023/01/28 04:30:12;;;;;;;10.73;6.47;;;5.20;69.40;4.90;96773.00;;;;4953777;28;20200;-90
2023/01/28 04:32:40;;;;;;;14.77;6.50;;;5.20;69.40;4.90;96792.00;;;;4953195;28;20250;-89
2023/01/28 04:35:11;;;;;;;8.93;6.00;;;5.20;69.50;4.90;96787.00;;;;4938464;28;20256;-91
2023/01/28 04:37:40;;;;;;;13.53;6.50;;;5.20;69.60;4.90;96797.00;;;;4952295;29;20634;-90
2023/01/28 04:40:10;;;;;;;10.87;5.57;;;5.30;69.70;4.90;96782.00;;;;4967392;28;20208;-90
2023/01/28 04:42:39;;;;;;;7.20;5.80;;;5.30;69.70;4.90;96790.00;;;;4952837;28;20581;-90
2023/01/28 04:45:12;;;;;;;10.97;6.43;;;5.30;69.70;4.90;96792.00;;;;4951168;28;20192;-88
2023/01/28 04:47:41;;;;;;;14.27;5.83;;;5.30;69.60;5.00;96795.00;;;;4952262;28;20235;-91
2023/01/28 04:50:11;;;;;;;8.50;5.80;;;5.30;69.70;5.00;96799.00;;;;4951858;28;20300;-91
2023/01/28 04:52:46;;;;;;;10.47;6.00;;;5.30;69.70;5.00;96793.00;;;;4952002;28;20294;-91
2023/01/28 04:55:13;;;;;;;8.37;6.07;;;5.30;69.70;5.00;96806.00;;;;4948219;29;20206;-91
2023/01/28 04:57:41;;;;;;;7.40;5.90;;;5.30;69.70;5.00;96811.00;;;;4951085;28;20196;-90
2023/01/28 05:00:13;;;;;;;9.80;5.70;;;5.40;69.70;5.00;96808.00;;;;4951429;29;20289;-91
2023/01/28 05:02:41;;;;;;;10.17;5.50;;;5.40;69.60;5.00;96817.00;;;;4951873;28;20216;-91
2023/01/28 05:05:10;;;;;;;9.57;5.93;;;5.40;69.60;5.00;96807.00;;;;4951878;28;20212;-90
2023/01/28 05:07:38;;;;;;;11.13;5.80;;;5.40;69.60;5.10;96812.00;;;;4952178;29;20665;-90
2023/01/28 05:10:06;;;;;;;9.83;5.53;;;5.40;69.50;5.00;96812.00;;;;4952936;29;20201;-89
2023/01/28 05:12:33;;;;;;;6.40;5.80;;;5.40;69.50;5.10;96812.00;;;;4951047;28;20216;-90
2023/01/28 05:15:01;;;;;;;7.73;5.43;;;5.40;69.50;5.10;96812.00;;;;4956516;28;20207;-91
2023/01/28 05:17:29;;;;;;;11.90;5.77;;;5.40;69.30;5.10;96819.00;;;;4954093;28;20205;-90
2023/01/28 05:19:56;;;;;;;8.87;6.13;;;5.40;69.30;5.10;96814.00;;;;4949953;29;20209;-91
2023/01/28 05:22:24;;;;;;;8.20;5.77;;;5.40;69.40;5.10;96816.00;;;;4949932;28;20248;-89
2023/01/28 05:24:54;;;;;;;9.17;5.83;;;5.40;69.40;5.10;96825.00;;;;4952154;29;20188;-89
2023/01/28 05:27:25;;;;;;;6.77;5.53;;;5.40;69.40;5.10;96827.00;;;;4952363;28;20201;-88
2023/01/28 05:29:52;;;;;;;8.13;6.10;;;5.40;69.50;5.10;96827.00;;;;4953952;28;20212;-89
2023/01/28 05:32:19;;;;;;;7.50;6.20;;;5.50;69.50;5.10;96827.00;;;;4953496;28;20252;-91
2023/01/28 05:34:46;;;;;;;10.70;5.63;;;5.50;69.40;5.10;96824.00;;;;4952443;29;20236;-89
2023/01/28 05:37:14;;;;;;;7.30;5.67;;;5.50;69.40;5.10;96834.00;;;;4948254;29;20226;-90
2023/01/28 05:39:42;;;;;;;6.70;5.57;;;5.50;69.50;5.20;96835.00;;;;4950967;29;20185;-90
2023/01/28 05:42:14;;;;;;;5.67;5.03;;;5.50;69.40;5.10;96841.00;;;;4953601;28;20220;-90
2023/01/28 05:44:41;;;;;;;6.83;5.13;;;5.50;69.20;5.20;96838.00;;;;4957365;28;20226;-90
2023/01/28 05:47:10;;;;;;;6.33;5.30;;;5.50;69.20;5.20;96848.00;;;;4954461;28;20200;-89
2023/01/28 05:49:40;;;;;;;8.77;5.50;;;5.50;69.30;5.20;96835.00;;;;4937583;28;20259;-89
2023/01/28 05:52:10;;;;;;;6.30;5.07;;;5.50;69.40;5.20;96844.00;;;;4957022;28;20677;-89
2023/01/28 05:54:39;;;;;;;6.63;5.33;;;5.50;69.50;5.20;96838.00;;;;4956923;29;20240;-90
2023/01/28 05:57:08;;;;;;;6.60;5.13;;;5.60;69.50;5.30;96849.00;;;;4955218;28;20200;-90
2023/01/28 05:59:35;;;;;;;9.53;5.80;;;5.60;69.50;5.30;96842.00;;;;4955985;28;20211;-89
2023/01/28 06:02:03;;;;;;;8.23;5.40;;;5.60;69.40;5.30;96834.00;;;;4960316;28;20228;-89
2023/01/28 06:04:30;;;;;;;7.60;5.73;;;5.60;69.40;5.30;96839.00;;;;4955236;29;20192;-90
2023/01/28 06:06:57;;;;;;;6.67;5.13;;;5.60;69.40;5.30;96838.00;;;;4954229;29;20242;-89
2023/01/28 06:09:26;;;;;;;6.63;4.87;;;5.70;69.40;5.30;96843.00;;;;4954646;28;20256;-89
2023/01/28 06:11:53;;;;;;;6.40;5.17;;;5.70;69.40;5.30;96839.00;;;;4947226;29;20200;-88
2023/01/28 06:14:22;;;;;;;7.40;4.83;;;5.70;69.40;5.40;96846.00;;;;4954608;28;20238;-90
2023/01/28 06:16:51;;;;;;;7.47;5.13;;;5.70;69.30;5.30;96845.00;;;;4954059;28;20239;-89
2023/01/28 06:19:18;;;;;;;7.73;5.43;;;5.70;69.40;5.40;96848.00;;;;4954407;28;20215;-88
2023/01/28 06:21:45;;;;;;;11.50;5.47;;;5.70;69.40;5.40;96848.00;;;;4960693;28;20256;-90
2023/01/28 06:24:13;;;;;;;9.47;5.80;;;5.70;69.40;5.40;96848.00;;;;4955895;29;20193;-89
2023/01/28 06:26:41;;;;;;;12.37;5.37;;;5.70;69.40;5.40;96849.00;;;;4956794;28;20240;-89
2023/01/28 06:29:09;;;;;;;7.17;5.10;;;5.70;69.40;5.40;96854.00;;;;4954395;29;20243;-89
2023/01/28 06:31:37;;;;;;;8.67;5.40;;;5.70;69.40;5.40;96860.00;;;;4955949;28;20220;-89
2023/01/28 06:34:05;;;;;;;5.97;4.70;;;5.70;69.30;5.40;96866.00;;;;4955348;29;20231;-90
2023/01/28 06:36:32;;;;;;;6.97;4.67;;;5.70;69.30;5.40;96862.00;;;;4954603;28;20196;-90
2023/01/28 06:38:59;;;;;;;6.87;5.20;;;5.70;69.20;5.40;96863.00;;;;4958592;28;20618;-90
2023/01/28 06:41:27;;;;;;;7.90;5.50;;;5.80;69.30;5.40;96871.00;;;;4959987;28;20244;-91
2023/01/28 06:43:54;;;;;;;6.17;4.77;;;5.70;69.20;5.40;96876.00;;;;4954196;29;20192;-89
2023/01/28 06:46:23;;;;;;;7.33;5.53;;;5.80;69.20;5.50;96882.00;;;;4954018;29;21748;-89
2023/01/28 06:48:51;;;;;;;7.37;4.53;;;5.70;69.20;5.50;96877.00;;;;4935431;29;20254;-90
2023/01/28 06:51:44;;;;;;;5.07;4.20;;;5.80;69.20;5.50;96891.00;;;;4947546;28;20354;-89
2023/01/28 06:54:21;;;;;;;6.93;5.10;;;5.80;69.10;5.50;96883.00;;;;4957299;28;20209;-90
2023/01/28 06:56:56;;;;;;;6.73;5.23;;;5.80;69.10;5.50;96894.00;;;;4978902;28;20200;-90
2023/01/28 06:59:28;;;;;;;11.07;5.43;;;5.80;69.20;5.50;96887.00;;;;4957605;28;20207;-90
2023/01/28 07:01:55;;;;;;;6.97;5.00;;;5.80;69.20;5.50;96890.00;;;;4947322;28;20232;-88
2023/01/28 07:04:24;;;;;;;6.20;5.13;;;5.80;69.30;5.50;96898.00;;;;4953847;28;20200;-90
2023/01/28 07:06:56;;;;;;;5.33;4.80;;;5.80;69.20;5.50;96900.00;;;;4960807;28;20803;-91
2023/01/28 07:09:25;;;;;;;7.27;4.93;;;5.90;69.20;5.50;96909.00;;;;4951396;29;20254;-89
2023/01/28 07:11:58;;;;;;;7.47;5.30;;;5.80;69.10;5.50;96912.00;;;;4974196;28;20293;-90
2023/01/28 07:14:33;;;;;;;10.73;5.33;;;5.90;69.20;5.50;96913.00;;;;4949846;28;20844;-90
2023/01/28 07:17:05;;;;;;;6.60;4.90;;;5.90;69.20;5.50;96908.00;;;;4965244;28;20219;-90
2023/01/28 07:19:34;;;;;;;6.63;5.13;;;5.90;69.20;5.50;96912.00;;;;4953233;28;20262;-91
2023/01/28 07:22:04;;;;;;;7.63;5.43;;;5.90;69.10;5.60;96915.00;;;;4953092;28;20230;-90
2023/01/28 07:24:31;;;;;;;8.67;5.23;;;5.90;69.20;5.60;96924.00;;;;4953518;28;20231;-89
2023/01/28 07:26:59;;;;;;;7.87;5.37;;;5.90;69.10;5.50;96914.00;;;;4952972;29;20250;-90
2023/01/28 07:29:26;;;;;;;6.20;5.03;;;5.90;69.00;5.50;96917.00;;;;4952472;28;20696;-90
2023/01/28 07:31:55;;;;;;;9.93;5.63;;;5.90;69.00;5.50;96919.00;;;;4952637;28;20224;-88
2023/01/28 07:34:23;;;;;;;9.43;5.67;;;5.90;68.90;5.60;96921.00;;;;4948968;29;20197;-86
2023/01/28 07:36:59;;;;;;;7.23;5.73;;;5.90;69.10;5.60;96924.00;;;;4951787;29;20254;-86
2023/01/28 07:39:27;;;;;;;7.97;5.17;;;5.90;69.10;5.70;96926.00;;;;4942459;28;20200;-86
2023/01/28 07:41:54;;;;;;;7.10;5.33;;;5.90;69.10;5.70;96921.00;;;;4952393;28;20216;-86
2023/01/28 07:44:27;;;;;;;6.07;5.00;;;5.90;69.10;5.80;96932.00;;;;4944301;28;20197;-86
2023/01/28 07:46:54;;;;;;;5.37;4.80;;;5.90;69.10;5.80;96937.00;;;;4934056;28;20239;-86
2023/01/28 07:49:24;;;;;;;8.20;5.30;;;6.00;69.10;5.90;96936.00;;;;4959643;28;20220;-86
2023/01/28 07:51:53;;;;;;;6.90;5.57;;;6.00;69.10;5.90;96945.00;;;;4933731;29;20244;-86
2023/01/28 07:54:36;;;;;;;6.53;5.33;;;6.00;68.90;5.90;96940.00;;;;4946045;28;20377;-87
2023/01/28 07:57:08;;;;;;;7.27;5.03;;;6.00;68.90;6.00;96949.00;;;;4942778;29;20204;-86
2023/01/28 07:59:41;;;;;;;14.83;5.47;;;6.10;68.80;6.00;96942.00;;;;4951230;28;20203;-85
2023/01/28 08:02:12;;;;;;;6.87;5.27;;;6.10;68.90;6.10;96946.00;;;;4950808;29;20211;-85
2023/01/28 08:04:40;;;;;;;8.03;5.53;;;6.10;69.00;6.10;96946.00;;;;4958959;28;20203;-86
2023/01/28 08:07:09;;;;;;;7.37;5.43;;;6.20;69.00;6.10;96946.00;;;;4949679;28;20570;-86
2023/01/28 08:09:43;;;;;;;8.53;5.73;;;6.20;69.00;6.20;96957.00;;;;4951274;29;20856;-86
2023/01/28 08:12:10;;;;;;;6.47;5.37;;;6.20;68.90;6.20;96952.00;;;;4951064;28;20245;-86
2023/01/28 08:14:40;;;;;;;8.63;5.33;;;6.20;68.80;6.20;96964.00;;;;4952539;28;20231;-86
2023/01/28 08:17:07;;;;;;;6.37;5.23;;;6.30;68.80;6.20;96961.00;;;;4951826;28;20200;-86
2023/01/28 08:19:50;;;;;;;6.30;4.63;;;6.30;68.70;6.20;96969.00;;;;4963933;28;20250;-87
2023/01/28 08:22:19;;;;;;;9.83;6.20;;;6.30;68.70;6.20;96964.00;;;;4953039;28;20216;-87
2023/01/28 08:24:57;;;;;;;6.50;5.00;;;6.30;68.60;6.20;96966.00;;;;4951236;29;20574;-86
2023/01/28 08:27:27;;;;;;;14.43;5.87;;;6.40;68.50;6.30;96967.00;;;;4944383;28;20284;-86
2023/01/28 08:30:01;;;;;;;8.73;5.20;;;6.40;68.50;6.30;96972.00;;;;4944445;29;20242;-88
2023/01/28 08:32:31;;;;;;;7.13;5.50;;;6.40;68.50;6.30;96972.00;;;;4949934;28;20223;-86
2023/01/28 08:35:01;;;;;;;6.00;4.97;;;6.40;68.20;6.30;96971.00;;;;4941375;29;20188;-87
2023/01/28 08:37:30;;;;;;;7.40;5.23;;;6.40;68.20;6.20;96970.00;;;;4953404;28;20227;-85
2023/01/28 08:40:00;;;;;;;7.37;4.93;;;6.40;68.30;6.30;96968.00;;;;4941886;28;20305;-85
2023/01/28 08:42:30;;;;;;;6.63;5.17;;;6.40;68.30;6.30;96972.00;;;;4951813;28;20258;-85
2023/01/28 08:44:57;;;;;;;9.93;5.10;;;6.40;68.10;6.20;96977.00;;;;4951248;29;20208;-86
2023/01/28 08:47:24;;;;;;;5.60;4.90;;;6.40;68.10;6.20;96974.00;;;;4957962;28;20282;-87
2023/01/28 08:49:51;;;;;;;6.77;5.27;;;6.40;68.20;6.20;96975.00;;;;4949941;28;20224;-86
2023/01/28 08:52:18;;;;;;;6.87;5.43;;;6.40;68.30;6.30;96980.00;;;;4955958;28;20243;-86
2023/01/28 08:54:47;;;;;;;6.03;4.83;;;6.40;68.10;6.30;96984.00;;;;4950289;28;20223;-86
2023/01/28 08:57:17;;;;;;;6.70;5.10;;;6.40;68.20;6.30;96983.00;;;;4948887;29;20227;-86
2023/01/28 08:59:50;;;;;;;7.50;5.47;;;6.50;68.30;6.40;96985.00;;;;4950495;28;20294;-86
2023/01/28 09:02:20;;;;;;;5.70;5.07;;;6.50;69.10;6.40;96989.00;;;;4948072;29;20285;-84
2023/01/28 09:04:50;;;;;;;6.07;4.80;;;6.50;68.30;6.40;96989.00;;;;4949229;29;20250;-86
2023/01/28 09:07:18;;;;;;;5.80;4.93;;;6.50;68.20;6.40;96992.00;;;;4949858;28;20196;-83
2023/01/28 09:09:46;;;;;;;6.60;4.77;;;6.50;68.10;6.50;96998.00;;;;4950320;29;20315;-85
2023/01/28 09:12:15;;;;;;;7.30;5.47;;;6.60;68.00;6.50;96998.00;;;;4950613;29;20224;-85
2023/01/28 09:14:46;;;;;;;6.50;4.87;;;6.60;68.00;6.60;96997.00;;;;4951553;28;20196;-85
2023/01/28 09:17:13;;;;;;;6.70;5.17;;;6.60;68.10;6.60;96997.00;;;;4951806;28;20192;-86
2023/01/28 09:19:40;;;;;;;7.97;5.50;;;6.60;68.10;6.70;97002.00;;;;4953675;29;20201;-86
2023/01/28 09:22:08;;;;;;;7.03;4.97;;;6.70;68.20;6.70;97005.00;;;;4970295;28;20216;-86
2023/01/28 09:24:35;;;;;;;6.90;5.63;;;6.70;68.00;6.70;97007.00;;;;4987004;28;20564;-86
2023/01/28 09:27:04;;;;;;;5.77;5.13;;;6.70;68.00;6.80;97010.00;;;;4956519;28;20208;-85
2023/01/28 09:29:33;;;;;;;13.57;5.30;;;6.80;67.90;6.80;97007.00;;;;4955689;28;20224;-84
2023/01/28 09:32:01;;;;;;;11.50;5.63;;;6.80;68.00;6.80;97003.00;;;;4966048;28;20224;-84
2023/01/28 09:34:28;;;;;;;5.47;4.83;;;6.80;68.10;6.90;97005.00;;;;4954696;28;20622;-85
2023/01/28 09:36:55;;;;;;;6.63;5.23;;;6.90;68.00;6.90;97004.00;;;;4950997;28;20612;-85
2023/01/28 09:39:24;;;;;;;8.87;5.53;;;6.90;67.90;6.90;97008.00;;;;4936669;29;20223;-84
2023/01/28 09:42:10;;;;;;;6.63;5.57;;;6.90;67.90;7.00;97015.00;;;;4947596;28;20875;-84
2023/01/28 09:44:56;;;;;;;8.23;5.60;;;7.00;67.90;7.10;97023.00;;;;4954135;28;20204;-85
2023/01/28 09:47:30;;;;;;;8.00;5.07;;;7.00;67.70;7.10;97018.00;;;;4953495;29;20204;-85
2023/01/28 09:50:04;;;;;;;6.40;5.43;;;7.00;67.60;7.10;97020.00;;;;5024452;28;20743;-86
2023/01/28 09:52:41;;;;;;;7.67;5.60;;;7.10;67.50;7.10;97026.00;;;;5007303;28;20235;-87
2023/01/28 09:55:24;;;;;;;10.97;5.90;;;7.10;67.40;7.10;97028.00;;;;4952741;28;20669;-88
2023/01/28 09:57:56;;;;;;;7.97;5.57;;;7.10;67.40;7.20;97021.00;;;;4953258;28;20207;-86
2023/01/28 10:00:33;;;;;;;9.17;5.50;;;7.10;67.40;7.20;97022.00;;;;4940645;29;20284;-87
2023/01/28 10:03:28;;;;;;;7.47;5.00;;;7.20;67.50;7.20;97017.00;;;;4941219;29;20855;-88
2023/01/28 10:06:13;;;;;;;6.90;5.50;;;7.20;67.30;7.30;97017.00;;;;4934906;28;20232;-88
2023/01/28 10:09:12;;;;;;;7.37;6.10;;;7.30;67.30;7.30;97013.00;;;;4940388;29;20632;-91
2023/01/28 10:12:01;;;;;;;8.00;5.97;;;7.30;66.80;7.40;97011.00;;;;4954602;28;20634;-91
2023/01/28 10:14:50;;;;;;;9.50;5.83;;;7.30;67.00;7.50;97008.00;;;;4954478;29;20240;-90
2023/01/28 10:17:28;;;;;;;6.97;5.50;;;7.40;67.10;7.50;97006.00;;;;5032670;28;20239;-90
2023/01/28 10:20:05;;;;;;;7.57;5.20;;;7.40;67.20;7.60;97000.00;;;;5032611;28;20303;-91
2023/01/28 10:22:43;;;;;;;7.60;5.57;;;7.50;67.30;7.70;97005.00;;;;4943747;28;20677;-88
2023/01/28 10:25:21;;;;;;;6.97;5.63;;;7.60;67.40;7.70;97001.00;;;;5004802;28;20287;-91
2023/01/28 10:27:51;;;;;;;19.63;5.40;;;7.60;67.30;7.80;97006.00;;;;4948368;28;20209;-88
2023/01/28 10:30:26;;;;;;;9.37;6.37;;;7.70;67.40;7.80;97003.00;;;;4947363;29;20293;-89
2023/01/28 10:33:01;;;;;;;14.10;6.20;;;7.70;67.10;7.80;97005.00;;;;4953545;28;20215;-88
2023/01/28 10:35:39;;;;;;;7.27;5.50;;;7.80;66.80;7.80;97006.00;;;;4952980;28;20212;-89
2023/01/28 10:38:14;;;;;;;7.63;5.80;;;7.80;66.70;7.80;97000.00;;;;4969292;28;20212;-87
2023/01/28 10:40:42;;;;;;;8.43;6.07;;;7.80;66.50;7.80;97008.00;;;;5049080;28;20303;-88
2023/01/28 10:43:10;;;;;;;8.23;6.37;;;7.80;66.50;7.80;97005.00;;;;4962684;28;20627;-87
2023/01/28 10:45:53;;;;;;;7.60;5.30;;;7.90;66.60;7.90;97000.00;;;;4954463;28;20196;-87
2023/01/28 10:48:24;;;;;;;7.33;5.97;;;7.90;66.30;7.90;97004.00;;;;4950505;28;20249;-87
2023/01/28 10:50:55;;;;;;;6.60;5.27;;;7.90;66.20;7.90;97009.00;;;;4941876;28;20235;-87
2023/01/28 10:53:36;;;;;;;8.43;6.07;;;7.90;66.00;7.90;97008.00;;;;4937606;28;20205;-87
2023/01/28 10:56:05;;;;;;;7.13;5.33;;;8.00;65.30;7.90;97013.00;;;;4950517;28;20239;-86
2023/01/28 10:58:46;;;;;;;7.80;5.70;;;7.90;65.30;7.90;97012.00;;;;4948647;29;20200;-88
2023/01/28 11:01:14;;;;;;;6.30;4.93;;;7.90;65.30;7.80;97009.00;;;;4967105;28;20277;-87
2023/01/28 11:03:55;;;;;;;6.47;5.37;;;7.90;65.00;7.80;97010.00;;;;4950480;28;20228;-87
2023/01/28 11:06:29;;;;;;;9.67;6.30;;;7.90;64.80;7.70;97016.00;;;;4949106;29;20265;-87
2023/01/28 11:08:57;;;;;;;8.40;6.00;;;7.90;65.10;7.70;97012.00;;;;4945132;28;20249;-88
2023/01/28 11:11:27;;;;;;;8.03;5.70;;;7.80;65.30;7.70;97012.00;;;;4951619;28;20274;-89
2023/01/28 11:14:00;;;;;;;6.80;5.70;;;7.80;65.30;7.80;97013.00;;;;4935620;28;20212;-88
2023/01/28 11:16:28;;;;;;;7.27;6.10;;;7.80;65.40;7.70;97012.00;;;;4946722;28;20181;-88
2023/01/28 11:19:03;;;;;;;6.50;5.90;;;7.80;65.20;7.70;97015.00;;;;4949974;28;20251;-89
2023/01/28 11:21:34;;;;;;;7.93;6.10;;;7.80;65.10;7.70;97015.00;;;;4958556;28;20230;-85
2023/01/28 11:24:04;;;;;;;16.43;6.53;;;7.80;65.00;7.70;97010.00;;;;4948417;29;20653;-87
2023/01/28 11:26:37;;;;;;;9.47;5.97;;;7.80;65.00;7.70;97015.00;;;;4956148;28;20196;-87
2023/01/28 11:29:04;;;;;;;7.00;6.03;;;7.80;65.40;7.70;97015.00;;;;4949101;29;20211;-86
2023/01/28 11:31:44;;;;;;;7.73;6.10;;;7.70;65.30;7.70;97007.00;;;;4956979;28;20220;-85
2023/01/28 11:34:19;;;;;;;6.17;5.10;;;7.70;65.50;7.70;97011.00;;;;4964440;28;20939;-87
2023/01/28 11:36:54;;;;;;;6.77;5.20;;;7.70;65.60;7.70;97012.00;;;;4947017;28;20694;-87
2023/01/28 11:39:27;;;;;;;6.87;5.63;;;7.70;65.30;7.60;97011.00;;;;4975660;28;20204;-87
2023/01/28 11:42:03;;;;;;;7.27;5.50;;;7.70;65.10;7.60;96993.00;;;;4943626;28;20220;-86
2023/01/28 11:44:30;;;;;;;6.20;5.33;;;7.70;65.20;7.50;97004.00;;;;4946535;28;20668;-86
2023/01/28 11:47:26;;;;;;;8.27;5.67;;;7.70;65.20;7.50;97003.00;;;;4951366;28;20219;-86
2023/01/28 11:50:15;;;;;;;8.30;5.13;;;7.70;65.10;7.40;97003.00;;;;4951542;28;20319;-87
2023/01/28 11:53:02;;;;;;;7.37;5.67;;;7.60;65.20;7.40;97002.00;;;;4956220;28;20301;-86
2023/01/28 11:55:43;;;;;;;6.27;5.33;;;7.60;65.20;7.40;96992.00;;;;4956688;28;20204;-85
2023/01/28 11:58:26;;;;;;;6.57;5.53;;;7.60;65.20;7.40;97002.00;;;;4947228;28;21163;-85
2023/01/28 12:01:06;;;;;;;7.30;5.87;;;7.60;65.20;7.40;97004.00;;;;4950026;28;20283;-86
2023/01/28 12:03:49;;;;;;;7.43;5.37;;;7.50;65.00;7.40;96998.00;;;;5009411;28;20224;-85